HAZ271 RJCC-RCTP
Flight info
| Callsign | HAZ271 |
|---|---|
| Flight time | N/A |
| Altitude | 36000 |
| Route | DALBI Y120 TAPPI Y12 ARIKA Y14 MIHOU Y45 HKC Y50 IGMON A1 DRAKE DRAKE1A |
| Aircraft | B77W/H-SDE1E2E3FGHIJ2J3J4J5M1RWXY/LB1D1 |
Departure
| Time | N/A |
|---|---|
| Airport | New Chitose Airport (RJCC) |
Arrival
| Time | 2026-05-04 09:25 |
|---|---|
| Airport | Taiwan Taoyuan International Airport (RCTP) |
| Time | Latitude | Longitude | Altitude | Speed | Heading |
|---|---|---|---|---|---|
| 2026-05-04 07:38 | 31.80187 | 130.65903 | 36020 ft | 400 kts | 218° |
| 2026-05-04 07:38 | 31.75465 | 130.62476 | 36018 ft | 398 kts | 218° |
| 2026-05-04 07:39 | 31.71095 | 130.58667 | 36025 ft | 390 kts | 227° |
| 2026-05-04 07:39 | 31.67193 | 130.54303 | 36021 ft | 387 kts | 230° |
| 2026-05-04 07:40 | 31.63847 | 130.49470 | 36023 ft | 384 kts | 235° |
| 2026-05-04 07:40 | 31.60604 | 130.44477 | 36032 ft | 384 kts | 235° |
| 2026-05-04 07:41 | 31.57351 | 130.39497 | 36036 ft | 385 kts | 235° |
| 2026-05-04 07:41 | 31.54079 | 130.34514 | 36030 ft | 386 kts | 234° |
| 2026-05-04 07:42 | 31.50791 | 130.29527 | 36027 ft | 387 kts | 234° |
| 2026-05-04 07:42 | 31.47501 | 130.24544 | 36029 ft | 387 kts | 234° |
| 2026-05-04 07:43 | 31.44200 | 130.19551 | 36027 ft | 387 kts | 234° |
| 2026-05-04 07:43 | 31.40900 | 130.14561 | 36035 ft | 389 kts | 234° |
| 2026-05-04 07:44 | 31.37573 | 130.09548 | 36015 ft | 389 kts | 234° |
| 2026-05-04 07:44 | 31.34258 | 130.04557 | 36030 ft | 388 kts | 234° |
| 2026-05-04 07:45 | 31.30951 | 129.99579 | 36034 ft | 387 kts | 234° |
| 2026-05-04 07:45 | 31.27646 | 129.94610 | 36031 ft | 387 kts | 234° |
| 2026-05-04 07:46 | 31.24336 | 129.89644 | 36036 ft | 387 kts | 234° |
| 2026-05-04 07:46 | 31.21031 | 129.84695 | 36033 ft | 386 kts | 234° |
| 2026-05-04 07:47 | 31.17729 | 129.79754 | 36034 ft | 387 kts | 234° |
| 2026-05-04 07:49 | 31.04360 | 129.59828 | 36036 ft | 391 kts | 234° |
| 2026-05-04 07:49 | 31.00999 | 129.54831 | 36054 ft | 392 kts | 234° |
| 2026-05-04 07:50 | 30.97656 | 129.49869 | 36042 ft | 392 kts | 234° |
| 2026-05-04 07:50 | 30.94282 | 129.44869 | 36036 ft | 392 kts | 234° |
| 2026-05-04 07:51 | 30.90909 | 129.39877 | 36049 ft | 393 kts | 234° |
| 2026-05-04 07:51 | 30.87527 | 129.34879 | 36050 ft | 393 kts | 234° |
| 2026-05-04 07:52 | 30.84143 | 129.29883 | 36043 ft | 393 kts | 234° |
| 2026-05-04 07:52 | 30.80753 | 129.24885 | 36056 ft | 394 kts | 234° |
| 2026-05-04 07:54 | 30.67394 | 129.04709 | 36054 ft | 394 kts | 235° |
| 2026-05-04 07:55 | 30.64070 | 128.99658 | 36043 ft | 394 kts | 235° |
| 2026-05-04 07:55 | 30.60748 | 128.94621 | 36040 ft | 394 kts | 235° |
| 2026-05-04 07:56 | 30.57418 | 128.89580 | 36042 ft | 394 kts | 235° |
| 2026-05-04 07:56 | 30.54088 | 128.84546 | 36051 ft | 393 kts | 235° |
| 2026-05-04 07:57 | 30.50757 | 128.79519 | 36054 ft | 394 kts | 235° |
| 2026-05-04 07:57 | 30.47433 | 128.74502 | 36069 ft | 394 kts | 235° |
| 2026-05-04 07:58 | 30.44094 | 128.69468 | 36071 ft | 394 kts | 235° |
| 2026-05-04 07:58 | 30.40751 | 128.64440 | 36078 ft | 394 kts | 235° |
| 2026-05-04 07:59 | 30.37423 | 128.59440 | 36074 ft | 395 kts | 235° |
| 2026-05-04 07:59 | 30.34052 | 128.54377 | 36074 ft | 395 kts | 235° |
| 2026-05-04 08:00 | 30.30717 | 128.49380 | 36071 ft | 395 kts | 235° |
| 2026-05-04 08:02 | 30.17244 | 128.29254 | 36072 ft | 396 kts | 235° |
| 2026-05-04 08:02 | 30.13864 | 128.24217 | 36074 ft | 396 kts | 235° |
| 2026-05-04 08:03 | 30.10483 | 128.19188 | 36075 ft | 396 kts | 235° |
| 2026-05-04 08:03 | 30.07103 | 128.14165 | 36073 ft | 396 kts | 235° |
| 2026-05-04 08:04 | 30.03718 | 128.09144 | 36076 ft | 396 kts | 235° |
| 2026-05-04 08:04 | 30.00329 | 128.04122 | 36079 ft | 396 kts | 235° |
| 2026-05-04 08:05 | 29.96940 | 127.99105 | 36084 ft | 397 kts | 235° |
| 2026-05-04 08:05 | 29.93545 | 127.94085 | 36084 ft | 397 kts | 235° |
| 2026-05-04 08:06 | 29.90152 | 127.89079 | 36082 ft | 396 kts | 235° |
| 2026-05-04 08:06 | 29.86763 | 127.84083 | 36084 ft | 395 kts | 234° |
| 2026-05-04 08:08 | 29.72410 | 127.64795 | 36081 ft | 398 kts | 232° |
| 2026-05-04 08:11 | 29.56220 | 127.43035 | 36082 ft | 399 kts | 234° |
| 2026-05-04 08:11 | 29.51084 | 127.35498 | 36082 ft | 400 kts | 235° |
| 2026-05-04 08:12 | 29.47646 | 127.30482 | 36086 ft | 400 kts | 234° |
| 2026-05-04 08:12 | 29.44752 | 127.26291 | 36082 ft | 400 kts | 234° |
| 2026-05-04 08:13 | 29.40730 | 127.20483 | 36082 ft | 400 kts | 234° |
| 2026-05-04 08:13 | 29.37851 | 127.16334 | 36083 ft | 400 kts | 234° |
| 2026-05-04 08:14 | 29.34386 | 127.11342 | 36085 ft | 400 kts | 234° |
| 2026-05-04 08:16 | 29.20462 | 126.91354 | 36082 ft | 401 kts | 234° |
| 2026-05-04 08:16 | 29.17000 | 126.86398 | 36082 ft | 401 kts | 234° |
| 2026-05-04 08:17 | 29.13512 | 126.81413 | 36081 ft | 401 kts | 234° |
| 2026-05-04 08:17 | 29.10020 | 126.76429 | 36083 ft | 401 kts | 234° |
| 2026-05-04 08:19 | 28.96031 | 126.56538 | 36100 ft | 402 kts | 234° |
| 2026-05-04 08:20 | 28.92423 | 126.51649 | 36103 ft | 403 kts | 233° |
| 2026-05-04 08:20 | 28.88789 | 126.46779 | 36091 ft | 403 kts | 233° |
| 2026-05-04 08:21 | 28.85159 | 126.41899 | 36092 ft | 404 kts | 233° |
| 2026-05-04 08:21 | 28.81524 | 126.37008 | 36090 ft | 405 kts | 233° |
| 2026-05-04 08:22 | 28.77881 | 126.32111 | 36093 ft | 405 kts | 233° |
| 2026-05-04 08:24 | 28.63240 | 126.12473 | 36093 ft | 407 kts | 234° |
| 2026-05-04 08:24 | 28.59669 | 126.07477 | 36090 ft | 407 kts | 235° |
| 2026-05-04 08:25 | 28.56156 | 126.02480 | 36093 ft | 407 kts | 235° |
| 2026-05-04 08:25 | 28.52605 | 125.97450 | 36092 ft | 408 kts | 234° |
| 2026-05-04 08:27 | 28.38314 | 125.77378 | 36081 ft | 408 kts | 234° |
| 2026-05-04 08:28 | 28.34740 | 125.72373 | 36082 ft | 408 kts | 234° |
| 2026-05-04 08:28 | 28.31163 | 125.67372 | 36084 ft | 408 kts | 234° |
| 2026-05-04 08:29 | 28.27582 | 125.62373 | 36084 ft | 408 kts | 234° |
| 2026-05-04 08:31 | 28.13271 | 125.42450 | 36086 ft | 407 kts | 234° |
| 2026-05-04 08:33 | 27.98949 | 125.22598 | 36082 ft | 406 kts | 234° |
| 2026-05-04 08:35 | 27.84512 | 125.02686 | 36084 ft | 412 kts | 234° |
| 2026-05-04 08:35 | 27.80870 | 124.97677 | 36082 ft | 413 kts | 234° |
| 2026-05-04 08:37 | 27.68114 | 124.80182 | 36052 ft | 411 kts | 234° |
| 2026-05-04 08:38 | 27.64480 | 124.75210 | 36060 ft | 410 kts | 234° |
| 2026-05-04 08:38 | 27.60853 | 124.70248 | 36051 ft | 410 kts | 233° |
| 2026-05-04 08:40 | 27.46398 | 124.50465 | 36055 ft | 408 kts | 233° |
| 2026-05-04 08:41 | 27.42786 | 124.45537 | 36053 ft | 408 kts | 233° |
| 2026-05-04 08:41 | 27.39163 | 124.40601 | 36057 ft | 409 kts | 233° |
| 2026-05-04 08:42 | 27.35561 | 124.35701 | 36061 ft | 410 kts | 233° |
| 2026-05-04 08:42 | 27.31928 | 124.30761 | 36052 ft | 410 kts | 233° |
| 2026-05-04 08:43 | 27.28287 | 124.25816 | 36049 ft | 411 kts | 233° |
| 2026-05-04 08:43 | 27.24639 | 124.20868 | 36055 ft | 411 kts | 233° |
| 2026-05-04 08:44 | 27.20988 | 124.15922 | 36053 ft | 412 kts | 233° |
| 2026-05-04 08:46 | 27.06317 | 123.96141 | 36056 ft | 413 kts | 233° |
| 2026-05-04 08:46 | 27.02606 | 123.91219 | 36058 ft | 413 kts | 233° |
| 2026-05-04 08:47 | 26.98924 | 123.86343 | 36052 ft | 413 kts | 233° |
| 2026-05-04 08:47 | 26.95212 | 123.81425 | 36059 ft | 413 kts | 233° |
| 2026-05-04 08:48 | 26.91495 | 123.76504 | 36060 ft | 414 kts | 233° |
| 2026-05-04 08:48 | 26.87774 | 123.71585 | 36051 ft | 414 kts | 233° |
| 2026-05-04 08:49 | 26.84044 | 123.66664 | 36057 ft | 415 kts | 233° |
| 2026-05-04 08:50 | 26.70934 | 123.49400 | 36062 ft | 417 kts | 233° |
| 2026-05-04 08:51 | 26.67182 | 123.44471 | 36059 ft | 417 kts | 233° |
| 2026-05-04 08:51 | 26.63423 | 123.39533 | 36068 ft | 417 kts | 233° |
| 2026-05-04 08:52 | 26.59668 | 123.34596 | 36067 ft | 417 kts | 233° |
| 2026-05-04 08:52 | 26.55905 | 123.29658 | 36061 ft | 417 kts | 233° |
| 2026-05-04 08:54 | 26.40889 | 123.10018 | 36058 ft | 416 kts | 233° |
| 2026-05-04 08:55 | 26.37131 | 123.05117 | 36062 ft | 416 kts | 233° |
| 2026-05-04 08:55 | 26.33367 | 123.00214 | 36057 ft | 416 kts | 233° |
| 2026-05-04 09:01 | 25.94847 | 122.50496 | 35442 ft | 424 kts | 232° |
| 2026-05-04 09:01 | 25.90333 | 122.44679 | 34864 ft | 432 kts | 232° |
| 2026-05-04 09:01 | 25.89032 | 122.42998 | 34443 ft | 431 kts | 232° |
| 2026-05-04 09:02 | 25.87086 | 122.40491 | 33795 ft | 426 kts | 232° |
| 2026-05-04 09:02 | 25.85160 | 122.38011 | 33185 ft | 421 kts | 232° |
| 2026-05-04 09:02 | 25.83256 | 122.35563 | 32569 ft | 417 kts | 232° |
| 2026-05-04 09:02 | 25.81369 | 122.33139 | 31968 ft | 413 kts | 232° |
| 2026-05-04 09:03 | 25.79501 | 122.30740 | 31374 ft | 406 kts | 232° |
| 2026-05-04 09:03 | 25.77689 | 122.28414 | 30797 ft | 391 kts | 233° |
| 2026-05-04 09:03 | 25.75930 | 122.26159 | 30253 ft | 384 kts | 233° |
| 2026-05-04 09:03 | 25.74191 | 122.23926 | 29706 ft | 382 kts | 233° |
| 2026-05-04 09:04 | 25.72458 | 122.21700 | 29152 ft | 380 kts | 233° |
| 2026-05-04 09:04 | 25.70737 | 122.19492 | 28599 ft | 377 kts | 233° |
| 2026-05-04 09:04 | 25.69039 | 122.17317 | 28056 ft | 375 kts | 233° |
| 2026-05-04 09:04 | 25.67337 | 122.15136 | 27512 ft | 373 kts | 233° |
| 2026-05-04 09:05 | 25.65645 | 122.12969 | 26977 ft | 371 kts | 233° |
| 2026-05-04 09:05 | 25.63985 | 122.10802 | 26437 ft | 367 kts | 237° |
| 2026-05-04 09:05 | 25.62604 | 122.08453 | 25920 ft | 361 kts | 243° |
| 2026-05-04 09:05 | 25.61453 | 122.05994 | 25399 ft | 358 kts | 247° |
| 2026-05-04 09:06 | 25.60479 | 122.03470 | 24881 ft | 355 kts | 252° |
| 2026-05-04 09:07 | 25.55905 | 121.85507 | 21420 ft | 338 kts | 255° |
| 2026-05-04 09:08 | 25.55265 | 121.83010 | 20960 ft | 336 kts | 255° |
| 2026-05-04 09:08 | 25.54630 | 121.80532 | 20488 ft | 333 kts | 254° |
| 2026-05-04 09:08 | 25.53999 | 121.78075 | 20013 ft | 331 kts | 254° |
| 2026-05-04 09:08 | 25.53379 | 121.75668 | 19563 ft | 328 kts | 254° |
| 2026-05-04 09:09 | 25.52754 | 121.73247 | 19105 ft | 326 kts | 253° |
| 2026-05-04 09:09 | 25.52133 | 121.70840 | 18655 ft | 324 kts | 253° |
| 2026-05-04 09:09 | 25.51517 | 121.68449 | 18208 ft | 322 kts | 253° |
| 2026-05-04 09:09 | 25.50904 | 121.66074 | 17755 ft | 320 kts | 253° |
| 2026-05-04 09:10 | 25.50294 | 121.63712 | 17310 ft | 318 kts | 253° |
| 2026-05-04 09:10 | 25.49688 | 121.61367 | 16860 ft | 316 kts | 253° |
| 2026-05-04 09:10 | 25.48955 | 121.59107 | 16419 ft | 312 kts | 245° |
| 2026-05-04 09:10 | 25.47929 | 121.57001 | 15995 ft | 310 kts | 240° |
| 2026-05-04 09:11 | 25.46737 | 121.55013 | 15552 ft | 309 kts | 235° |
| 2026-05-04 09:11 | 25.45368 | 121.53184 | 15129 ft | 308 kts | 232° |
| 2026-05-04 09:11 | 25.43952 | 121.51406 | 14702 ft | 307 kts | 231° |
| 2026-05-04 09:11 | 25.42545 | 121.49634 | 14272 ft | 306 kts | 232° |
| 2026-05-04 09:12 | 25.41152 | 121.47861 | 13846 ft | 305 kts | 232° |
| 2026-05-04 09:12 | 25.39768 | 121.46091 | 13433 ft | 303 kts | 232° |
| 2026-05-04 09:14 | 25.30259 | 121.33951 | 10711 ft | 291 kts | 231° |
| 2026-05-04 09:14 | 25.28949 | 121.32281 | 10541 ft | 284 kts | 231° |
| 2026-05-04 09:14 | 25.27676 | 121.30656 | 10398 ft | 275 kts | 231° |
| 2026-05-04 09:14 | 25.26444 | 121.29085 | 10269 ft | 266 kts | 230° |
| 2026-05-04 09:15 | 25.25255 | 121.27571 | 10148 ft | 256 kts | 230° |
| 2026-05-04 09:15 | 25.24089 | 121.26084 | 10081 ft | 260 kts | 230° |
| 2026-05-04 09:15 | 25.22870 | 121.24530 | 9870 ft | 275 kts | 230° |
| 2026-05-04 09:15 | 25.21592 | 121.22902 | 9510 ft | 283 kts | 230° |
| 2026-05-04 09:17 | 25.11504 | 121.10090 | 6761 ft | 287 kts | 229° |
| 2026-05-04 09:18 | 25.10192 | 121.08426 | 6354 ft | 289 kts | 229° |
| 2026-05-04 09:18 | 25.08891 | 121.06771 | 5998 ft | 290 kts | 229° |
| 2026-05-04 09:18 | 25.07547 | 121.05066 | 5628 ft | 291 kts | 229° |
| 2026-05-04 09:18 | 25.06237 | 121.03402 | 5342 ft | 289 kts | 229° |
| 2026-05-04 09:19 | 25.04795 | 121.01900 | 4899 ft | 284 kts | 209° |
| 2026-05-04 09:19 | 25.02978 | 121.01292 | 4681 ft | 263 kts | 179° |
| 2026-05-04 09:19 | 25.01265 | 121.01591 | 4561 ft | 240 kts | 158° |
| 2026-05-04 09:19 | 24.99831 | 121.02345 | 4400 ft | 218 kts | 140° |
| 2026-05-04 09:20 | 24.98721 | 121.03392 | 4198 ft | 205 kts | 133° |
| 2026-05-04 09:20 | 24.97705 | 121.04476 | 3980 ft | 201 kts | 132° |
| 2026-05-04 09:20 | 24.96716 | 121.05534 | 3765 ft | 194 kts | 132° |
| 2026-05-04 09:20 | 24.95796 | 121.06577 | 3503 ft | 184 kts | 119° |
| 2026-05-04 09:21 | 24.95513 | 121.07853 | 3349 ft | 174 kts | 76° |
| 2026-05-04 09:21 | 24.96042 | 121.09067 | 3178 ft | 180 kts | 56° |
| 2026-05-04 09:21 | 24.96743 | 121.10219 | 2922 ft | 181 kts | 56° |
| 2026-05-04 09:21 | 24.97453 | 121.11338 | 2699 ft | 174 kts | 53° |
| 2026-05-04 09:22 | 24.98196 | 121.12353 | 2460 ft | 167 kts | 51° |
| 2026-05-04 09:22 | 24.98933 | 121.13299 | 2221 ft | 158 kts | 50° |
| 2026-05-04 09:22 | 24.99631 | 121.14186 | 2031 ft | 150 kts | 51° |
| 2026-05-04 09:22 | 25.00323 | 121.15060 | 1855 ft | 154 kts | 51° |
| 2026-05-04 09:23 | 25.01022 | 121.15947 | 1638 ft | 152 kts | 51° |
| 2026-05-04 09:23 | 25.01711 | 121.16816 | 1432 ft | 149 kts | 51° |
| 2026-05-04 09:23 | 25.02377 | 121.17659 | 1259 ft | 144 kts | 51° |
| 2026-05-04 09:23 | 25.03018 | 121.18522 | 1067 ft | 147 kts | 56° |
| 2026-05-04 09:25 | 25.07449 | 121.24087 | 99 ft | 70 kts | 49° |
| 2026-05-04 09:25 | 25.07670 | 121.24365 | 101 ft | 27 kts | 49° |
| 2026-05-04 09:26 | 25.07765 | 121.24487 | 101 ft | 31 kts | 49° |
| 2026-05-04 09:26 | 25.07909 | 121.24593 | 101 ft | 16 kts | 327° |
| 2026-05-04 09:26 | 25.07956 | 121.24552 | 102 ft | 1 kts | 321° |
| 2026-05-04 09:26 | 25.07964 | 121.24544 | 103 ft | 0 kts | 321° |
| 2026-05-04 09:28 | 25.07966 | 121.24543 | 102 ft | 2 kts | 321° |
| 2026-05-04 09:28 | 25.07989 | 121.24521 | 103 ft | 7 kts | 321° |
| 2026-05-04 09:28 | 25.08049 | 121.24468 | 105 ft | 15 kts | 321° |
| 2026-05-04 09:28 | 25.08127 | 121.24392 | 106 ft | 14 kts | 319° |
| 2026-05-04 09:29 | 25.08202 | 121.24320 | 108 ft | 14 kts | 319° |
| 2026-05-04 09:29 | 25.08277 | 121.24249 | 107 ft | 14 kts | 319° |
| 2026-05-04 09:29 | 25.08352 | 121.24178 | 106 ft | 14 kts | 319° |
| 2026-05-04 09:29 | 25.08427 | 121.24108 | 107 ft | 14 kts | 320° |
| 2026-05-04 09:30 | 25.08499 | 121.24040 | 108 ft | 14 kts | 319° |
| 2026-05-04 09:30 | 25.08574 | 121.23968 | 107 ft | 14 kts | 319° |
| 2026-05-04 09:30 | 25.08646 | 121.23898 | 108 ft | 9 kts | 311° |
| 2026-05-04 09:30 | 25.08652 | 121.23833 | 106 ft | 9 kts | 246° |
| 2026-05-04 09:31 | 25.08613 | 121.23775 | 106 ft | 10 kts | 230° |
| 2026-05-04 09:31 | 25.08568 | 121.23716 | 106 ft | 11 kts | 229° |
| 2026-05-04 09:31 | 25.08512 | 121.23644 | 105 ft | 14 kts | 229° |
| 2026-05-04 09:31 | 25.08440 | 121.23552 | 108 ft | 17 kts | 229° |
| 2026-05-04 09:32 | 25.08355 | 121.23443 | 108 ft | 20 kts | 229° |
| 2026-05-04 09:32 | 25.08260 | 121.23323 | 108 ft | 18 kts | 229° |
| 2026-05-04 09:34 | 25.07955 | 121.23107 | 106 ft | 0 kts | 138° |